Geraldton Airport
YGEL : rendu visible

Aérodrome :











RETROUVEZ-NOUS SUR...

 
LOGIN :

S'inscrire | Disclaimer

   EN    FR    IT 

 









Légende :    VFR   VFR Marginal   IFR   IFR Intensif   IFR Très Intensif
Visi : 
Plafond : 
>= 8 km
>= 3000ft
5 à 8 km
1000 à 3000 ft
1500m à 5 km
500 à 1000 ft
800 à 1500m
200 à 500 ft
< 800m
< 200 ft
Symboles :   Orages  Brouillard  Fortes neiges  Fortes précipitations  Vent > 20 kt






- Altitude de l'aérodrome : 121 ft
- Code IATA : GET


YGEL - Geraldton

DERNIER METAR :
  • 252130Z AUTO 09005KT 9999 // SCT031 BKN038 BKN048 14/11 Q1019

METARs EXPIRÉS :
  • 252100Z AUTO 11004KT 9999 // BKN034 BKN039 OVC048 15/11 Q1019
  • 252030Z AUTO 18007KT 9999 // SCT043 OVC051 15/11 Q1018
  • 252000Z AUTO 20008KT 9999 // SCT046 BKN053 15/11 Q1018
  • 251930Z AUTO 19010KT 9999 // BKN053 16/11 Q1018 RF00.2/001.2
  • 251900Z AUTO 15003KT 9999 // SCT031 SCT039 BKN048 15/12 Q1019

TAF TAF YGEL
Valide du 25 à 18h jusqu'au 26 à 12h UTC


251605Z 2518/2612 18014KT 9999 SCT045
FM252000 04005KT 9999 BKN040
FM260800 11008KT 9999 BKN035
FIR YMMM / Océanie



MET'MAP, la Météo Aéronautique d'un coup d'oeil ! - Copyright ORBIFLY Décembre 2007 - Disclaimer

ORBIFLY MET'MAP TEAM :

Programmation & Développement : Alexandra Zaïnal
Sur une idée originale de : Baudouin d'Aumeries
Assistance à la programmation : Marc-Olivier Méhu
Soutien technique & logistique : Manuel Goepfert

Contact : metmap@orbifly.com




SOURCES & CREDITS :

   NOAA       Earth
Advisory